createdAt,value
2023-03-24T00:00:58.169Z,99.99
2023-03-24T00:01:58.094Z,99.99
2023-03-24T00:02:58.087Z,99.99
2023-03-24T00:03:57.961Z,99.99
2023-03-24T00:04:57.855Z,99.99
2023-03-24T00:05:57.772Z,99.99
2023-03-24T00:06:57.698Z,99.99
2023-03-24T00:08:01.728Z,99.99
2023-03-24T00:08:57.540Z,99.99
2023-03-24T00:09:57.470Z,99.99
2023-03-24T00:10:57.415Z,99.99
2023-03-24T00:11:57.311Z,99.99
2023-03-24T00:12:57.225Z,99.99
2023-03-24T00:13:57.151Z,99.99
2023-03-24T00:14:57.071Z,99.99
2023-03-24T00:15:57.019Z,99.99
2023-03-24T00:16:56.912Z,99.99
2023-03-24T00:17:56.849Z,99.99
2023-03-24T00:18:56.758Z,99.99
2023-03-24T00:19:56.680Z,99.99
2023-03-24T00:20:56.598Z,99.99
2023-03-24T00:21:56.522Z,99.99
2023-03-24T00:22:56.446Z,99.99
2023-03-24T00:23:56.374Z,99.99
2023-03-24T00:24:56.284Z,99.99
2023-03-24T00:25:56.478Z,99.99
2023-03-24T00:26:56.245Z,99.99
2023-03-24T00:27:56.050Z,99.99
2023-03-24T00:28:56.271Z,99.99
2023-03-24T00:29:56.045Z,99.99
2023-03-24T00:30:55.837Z,99.99
2023-03-24T00:31:55.738Z,99.99
2023-03-24T00:32:55.737Z,99.99
2023-03-24T00:33:55.621Z,99.99
2023-03-24T00:34:55.512Z,99.99
2023-03-24T00:35:55.445Z,99.99
2023-03-24T00:36:55.598Z,99.99
2023-03-24T00:37:55.286Z,99.99
2023-03-24T00:38:55.190Z,99.99
2023-03-24T00:39:55.134Z,99.99
2023-03-24T00:40:55.033Z,99.99
2023-03-24T00:41:54.957Z,99.99
2023-03-24T00:42:54.894Z,99.99
2023-03-24T00:43:54.800Z,99.99
2023-03-24T00:44:54.720Z,99.99
2023-03-24T00:45:54.641Z,99.99
2023-03-24T00:47:54.968Z,99.99
2023-03-24T00:48:54.405Z,99.99
2023-03-24T00:49:54.357Z,99.99
2023-03-24T00:50:54.248Z,99.99
2023-03-24T00:51:54.172Z,99.99
2023-03-24T01:54:36.993Z,99.99
2023-03-24T01:55:36.874Z,99.99
2023-03-24T01:56:36.823Z,99.99
2023-03-24T01:57:36.716Z,99.99
2023-03-24T01:58:36.636Z,99.99
2023-03-24T01:59:36.606Z,99.99
2023-03-24T02:00:36.479Z,99.99
2023-03-24T02:01:36.459Z,99.99
2023-03-24T02:02:36.341Z,99.99
2023-03-24T02:03:36.252Z,99.99
2023-03-24T02:04:36.160Z,99.99
2023-03-24T02:05:36.083Z,99.99
2023-03-24T02:06:36.006Z,99.99
2023-03-24T02:07:35.934Z,99.99
2023-03-24T02:08:35.846Z,99.99
2023-03-24T02:09:36.015Z,99.99
2023-03-24T02:10:35.710Z,99.99
2023-03-24T02:11:35.612Z,99.99
2023-03-24T02:12:35.533Z,99.99
2023-03-24T02:13:35.448Z,99.99
2023-03-24T02:14:35.374Z,99.99
2023-03-24T02:15:35.292Z,99.99
2023-03-24T02:16:35.232Z,99.99
2023-03-24T02:17:35.169Z,99.99
2023-03-24T02:18:35.056Z,99.99
2023-03-24T02:19:34.977Z,99.99
2023-03-24T02:20:34.898Z,99.99
2023-03-24T02:21:34.869Z,99.99
2023-03-24T02:22:34.741Z,99.99
2023-03-24T02:23:34.763Z,99.99
2023-03-24T02:24:34.585Z,99.99
2023-03-24T02:25:34.861Z,99.99
2023-03-24T02:26:34.487Z,99.99
2023-03-24T02:27:34.346Z,99.99
2023-03-24T02:28:34.280Z,99.99
2023-03-24T02:29:34.187Z,99.99
2023-03-24T02:30:34.117Z,99.99
2023-03-24T02:31:34.043Z,99.99
2023-03-24T02:32:34.011Z,99.99
2023-03-24T02:33:34.275Z,99.99
2023-03-24T02:34:33.805Z,99.99
2023-03-24T02:35:33.719Z,99.99
2023-03-24T02:36:33.638Z,99.99
2023-03-24T02:37:33.554Z,99.99
2023-03-24T02:38:33.479Z,99.99
2023-03-24T02:39:33.410Z,99.99
2023-03-24T02:40:33.322Z,99.99
2023-03-24T02:41:33.242Z,99.99
2023-03-24T02:42:33.195Z,99.99
2023-03-24T02:43:33.089Z,99.99
2023-03-24T02:44:33.009Z,99.99
2023-03-24T02:45:32.981Z,99.99
2023-03-24T02:46:32.847Z,99.99
2023-03-24T02:47:32.786Z,99.99
2023-03-24T02:48:32.730Z,99.99
2023-03-24T02:49:32.607Z,99.99
2023-03-24T02:50:32.544Z,99.99
2023-03-24T02:51:32.861Z,99.99
2023-03-24T02:52:32.374Z,99.99
2023-03-24T02:53:32.357Z,99.99
2023-03-24T02:54:32.216Z,99.99
2023-03-24T02:55:32.159Z,99.99
2023-03-24T02:56:32.089Z,99.99
2023-03-24T02:57:31.983Z,99.99
2023-03-24T02:58:31.921Z,99.99
2023-03-24T02:59:31.821Z,99.99
2023-03-24T03:00:31.842Z,99.99
2023-03-24T03:01:32.092Z,99.99
2023-03-24T03:02:31.627Z,99.99
2023-03-24T03:03:31.510Z,99.99
2023-03-24T03:04:31.461Z,99.99
2023-03-24T03:05:31.347Z,99.99
2023-03-24T03:06:31.297Z,99.99
2023-03-24T03:07:31.189Z,99.99
2023-03-24T03:08:31.117Z,99.99
2023-03-24T03:09:31.033Z,99.99
2023-03-24T03:10:31.219Z,99.99
2023-03-24T03:11:30.874Z,99.99
2023-03-24T03:12:30.798Z,99.99
2023-03-24T03:13:30.723Z,99.99
2023-03-24T03:14:30.669Z,99.99
2023-03-24T03:15:30.577Z,99.99
2023-03-24T03:16:30.486Z,99.99
2023-03-24T03:17:30.428Z,99.99
2023-03-24T03:18:30.361Z,99.99
2023-03-24T03:19:30.249Z,99.99
2023-03-24T03:20:30.172Z,99.99
2023-03-24T03:21:30.089Z,99.99
2023-03-24T03:22:30.028Z,99.99
2023-03-24T03:23:29.937Z,99.99
2023-03-24T03:24:29.863Z,99.99
2023-03-24T03:25:29.781Z,99.99
2023-03-24T03:26:29.701Z,99.99
2023-03-24T03:27:29.619Z,99.99
2023-03-24T03:28:29.561Z,99.99
2023-03-24T03:29:29.468Z,99.99
2023-03-24T03:30:29.402Z,99.99
2023-03-24T03:31:29.334Z,99.99
2023-03-24T03:32:29.256Z,99.99
2023-03-24T04:02:19.832Z,99.99
2023-03-24T04:03:17.130Z,99.99
2023-03-24T04:04:16.973Z,99.99
2023-03-24T04:05:17.198Z,99.99
2023-03-24T04:06:16.817Z,99.99
2023-03-24T04:07:16.734Z,99.99
2023-03-24T04:08:16.658Z,99.99
2023-03-24T04:09:16.578Z,99.99
2023-03-24T04:10:16.502Z,99.99
2023-03-24T04:11:16.432Z,99.99
2023-03-24T04:12:16.383Z,99.99
2023-03-24T04:13:16.262Z,99.99
2023-03-24T04:14:16.191Z,99.99
2023-03-24T04:15:16.116Z,99.99
2023-03-24T04:16:16.042Z,99.99
2023-03-24T04:17:15.949Z,99.99
2023-03-24T04:18:15.894Z,99.99
2023-03-24T04:19:15.798Z,99.99
2023-03-24T04:20:15.713Z,99.99
2023-03-24T04:21:15.640Z,99.99
2023-03-24T04:22:15.558Z,99.99
2023-03-24T04:23:15.478Z,99.99
2023-03-24T04:24:15.403Z,99.99
2023-03-24T04:25:15.323Z,99.99
2023-03-24T04:26:15.255Z,99.99
2023-03-24T04:27:15.169Z,99.99
2023-03-24T04:28:15.088Z,99.99
2023-03-24T04:29:15.011Z,99.99
2023-03-24T04:30:16.709Z,99.99
2023-03-24T04:31:14.889Z,99.99
2023-03-24T04:32:14.782Z,99.99
2023-03-24T04:33:14.698Z,99.99
2023-03-24T04:34:14.640Z,99.99
2023-03-24T04:35:14.542Z,99.99
2023-03-24T04:36:14.686Z,99.99
2023-03-24T04:37:14.386Z,99.99
2023-03-24T04:38:14.306Z,99.99
2023-03-24T04:39:14.225Z,99.99
2023-03-24T04:40:14.151Z,99.99
2023-03-24T04:41:14.721Z,99.99
2023-03-24T04:42:13.996Z,99.99
2023-03-24T04:43:13.919Z,99.99
2023-03-24T04:44:13.835Z,99.99
2023-03-24T04:46:13.919Z,99.99
2023-03-24T04:47:13.599Z,99.99
2023-03-24T04:49:13.445Z,99.99
2023-03-24T04:56:12.914Z,99.99
2023-03-24T04:57:12.844Z,99.99
2023-03-24T04:58:12.742Z,99.99
2023-03-24T04:59:12.663Z,99.99
2023-03-24T05:00:12.586Z,99.99
2023-03-24T05:01:12.543Z,99.99
2023-03-24T05:02:12.437Z,99.99
2023-03-24T05:03:12.345Z,99.99
2023-03-24T05:04:12.315Z,99.99
2023-03-24T05:05:12.237Z,99.99
2023-03-24T05:06:12.107Z,99.99
2023-03-24T05:07:12.030Z,99.99
2023-03-24T05:08:11.953Z,99.99
2023-03-24T05:09:11.872Z,99.99
2023-03-24T05:10:11.796Z,99.99
2023-03-24T05:11:11.863Z,99.99
2023-03-24T05:12:11.661Z,99.99
2023-03-24T05:13:11.561Z,99.99
2023-03-24T05:14:11.474Z,99.99
2023-03-24T05:15:11.395Z,99.99
2023-03-24T05:16:11.351Z,99.99
2023-03-24T05:17:11.239Z,99.99
2023-03-24T05:18:11.225Z,99.99
2023-03-24T05:19:11.084Z,99.99
2023-03-24T05:20:11.327Z,99.99
2023-03-24T05:21:10.924Z,99.99
2023-03-24T05:22:10.843Z,99.99
2023-03-24T05:23:10.771Z,99.99
2023-03-24T05:24:10.686Z,99.99
2023-03-24T05:25:10.607Z,99.99
2023-03-24T05:26:10.531Z,99.99
2023-03-24T05:27:10.496Z,99.99
2023-03-24T05:28:10.388Z,99.99
2023-03-24T05:29:10.306Z,99.99
2023-03-24T05:30:10.216Z,99.99
2023-03-24T05:31:10.186Z,99.99
2023-03-24T05:32:10.202Z,99.99
2023-03-24T05:33:09.994Z,99.99
2023-03-24T05:34:09.898Z,99.99
2023-03-24T05:35:09.814Z,99.99
2023-03-24T05:36:09.839Z,99.99
2023-03-24T05:37:09.655Z,99.99
2023-03-24T05:38:09.581Z,99.99
2023-03-24T05:39:09.496Z,99.99
2023-03-24T05:40:09.426Z,99.99
2023-03-24T05:41:09.339Z,99.99
2023-03-24T05:42:09.256Z,99.99
2023-03-24T05:43:09.278Z,99.99
2023-03-24T05:44:09.131Z,99.99
2023-03-24T05:45:09.017Z,99.99
2023-03-24T05:46:08.949Z,99.99
2023-03-24T05:47:08.865Z,99.99
2023-03-24T05:48:08.810Z,99.99
2023-03-24T05:49:08.699Z,99.99
2023-03-24T05:50:08.621Z,99.99
2023-03-24T05:51:09.153Z,99.99
2023-03-24T05:52:08.461Z,99.99
2023-03-24T05:53:08.381Z,99.99
2023-03-24T05:54:08.303Z,99.99
2023-03-24T05:55:08.220Z,99.99
2023-03-24T05:56:08.145Z,99.99
2023-03-24T05:57:08.101Z,99.99
2023-03-24T05:58:07.983Z,99.99
2023-03-24T05:59:07.903Z,99.99
2023-03-24T06:00:07.844Z,99.99
2023-03-24T06:01:08.094Z,99.99
2023-03-24T06:02:07.765Z,99.99
2023-03-24T06:03:07.681Z,99.99
2023-03-24T06:04:07.603Z,99.99
2023-03-24T06:05:07.466Z,99.99
2023-03-24T06:06:07.457Z,99.99
2023-03-24T06:07:07.267Z,99.99
2023-03-24T06:08:07.196Z,99.99
2023-03-24T06:09:07.124Z,99.99
2023-03-24T06:10:07.032Z,99.99
2023-03-24T06:11:06.948Z,99.99
2023-03-24T06:12:06.884Z,99.99
2023-03-24T06:13:06.794Z,99.99
2023-03-24T06:14:06.714Z,99.99
2023-03-24T06:15:06.637Z,99.99
2023-03-24T06:16:06.629Z,99.99
2023-03-24T06:17:06.476Z,99.99
2023-03-24T06:18:06.565Z,99.99
2023-03-24T06:19:06.367Z,99.99
2023-03-24T06:20:06.235Z,99.99
2023-03-24T06:21:06.156Z,99.99
2023-03-24T06:22:06.078Z,99.99
2023-03-24T06:23:06.000Z,99.99
2023-03-24T06:24:05.921Z,99.99
2023-03-24T06:25:05.842Z,99.99
2023-03-24T06:26:05.760Z,99.99
2023-03-24T06:27:05.682Z,99.99
2023-03-24T06:28:05.600Z,99.99
2023-03-24T06:29:05.522Z,99.99
2023-03-24T06:30:08.067Z,99.99
2023-03-24T10:39:26.278Z,99.99
2023-03-24T10:40:21.976Z,99.99
2023-03-24T10:41:21.907Z,99.99
2023-03-24T10:42:21.945Z,99.99
2023-03-24T10:43:22.351Z,99.99
2023-03-24T10:44:21.664Z,99.99
2023-03-24T10:45:21.589Z,99.99
2023-03-24T10:46:21.542Z,99.99
2023-03-24T10:47:21.441Z,99.99
2023-03-24T10:48:21.393Z,99.99
2023-03-24T10:49:21.273Z,99.99
2023-03-24T10:50:21.536Z,99.99
2023-03-24T10:51:21.118Z,99.99
2023-03-24T10:52:21.035Z,99.99
2023-03-24T10:53:20.958Z,99.99
2023-03-24T10:54:21.228Z,99.99
2023-03-24T10:55:20.819Z,99.99
2023-03-24T10:56:21.021Z,99.99
2023-03-24T10:57:20.644Z,99.99
2023-03-24T10:58:20.572Z,99.99
2023-03-24T10:59:20.487Z,99.99
2023-03-24T11:00:20.405Z,99.99
2023-03-24T11:01:20.358Z,99.99
2023-03-24T11:02:20.360Z,99.99
2023-03-24T11:03:20.374Z,99.99
2023-03-24T11:04:20.302Z,99.99
2023-03-24T11:05:20.020Z,99.99
2023-03-24T11:06:19.926Z,99.99
2023-03-24T11:07:19.861Z,99.99
2023-03-24T11:08:19.769Z,99.99
2023-03-24T11:09:19.690Z,99.99
2023-03-24T11:10:19.611Z,99.99
2023-03-24T11:11:19.554Z,99.99
2023-03-24T11:12:19.448Z,99.99
2023-03-24T11:13:19.371Z,99.99
2023-03-24T11:14:19.288Z,99.99
2023-03-24T11:15:22.097Z,99.99
2023-03-24T11:16:19.207Z,99.99
2023-03-24T11:17:19.047Z,99.99
2023-03-24T11:18:18.968Z,99.99
2023-03-24T11:19:20.325Z,99.99
2023-03-24T11:22:18.679Z,99.99
2023-03-24T11:23:18.601Z,99.99
2023-03-24T11:24:18.523Z,99.99
2023-03-24T11:28:18.203Z,99.99
2023-03-24T11:29:18.089Z,99.99
2023-03-24T11:30:18.104Z,99.99
2023-03-24T11:31:18.005Z,99.99
2023-03-24T11:32:17.844Z,99.99
2023-03-24T11:33:17.763Z,99.99
2023-03-24T11:34:17.739Z,99.99
2023-03-24T11:35:17.784Z,99.99
2023-03-24T11:36:17.563Z,99.99
2023-03-24T11:37:17.443Z,99.99
2023-03-24T11:38:17.365Z,99.99
2023-03-24T11:39:17.286Z,99.99
2023-03-24T11:40:17.367Z,99.99
2023-03-24T11:41:17.122Z,99.99
2023-03-24T11:42:17.069Z,99.99
2023-03-24T11:43:16.963Z,99.99
2023-03-24T11:44:16.920Z,99.99
2023-03-24T11:45:16.808Z,99.99
2023-03-24T11:46:16.775Z,99.99
2023-03-24T11:47:16.646Z,99.99
2023-03-24T11:48:16.577Z,99.99
2023-03-24T11:49:16.488Z,99.99
2023-03-24T11:50:16.471Z,99.99
2023-03-24T11:51:16.326Z,99.99
2023-03-24T11:52:16.248Z,99.99
2023-03-24T11:53:16.184Z,99.99
2023-03-24T11:54:16.103Z,99.99
2023-03-24T11:55:16.011Z,99.99
2023-03-24T11:56:15.934Z,99.99
2023-03-24T11:57:15.911Z,99.99
2023-03-24T11:58:15.774Z,99.99
2023-03-24T11:59:15.697Z,99.99
2023-03-24T12:00:15.659Z,99.99
2023-03-24T12:01:15.536Z,99.99
2023-03-24T12:02:15.468Z,99.99
2023-03-24T12:03:15.482Z,99.99
2023-03-24T12:04:15.705Z,99.99
2023-03-24T12:05:15.222Z,99.99
2023-03-24T12:06:15.172Z,99.99
2023-03-24T12:07:15.087Z,99.99
2023-03-24T12:08:14.991Z,99.99
2023-03-24T12:09:14.905Z,99.99
2023-03-24T12:10:14.827Z,99.99
2023-03-24T12:11:16.217Z,99.99
2023-03-24T12:12:14.680Z,99.99
2023-03-24T12:13:25.964Z,99.99
2023-03-24T12:14:14.514Z,99.99
2023-03-24T12:15:27.195Z,99.99
2023-03-24T12:16:14.522Z,99.99
2023-03-24T12:17:14.289Z,99.99
2023-03-24T12:18:14.203Z,99.99
2023-03-24T12:19:14.268Z,99.99
2023-03-24T12:20:14.042Z,99.99
2023-03-24T12:21:13.960Z,99.99
2023-03-24T12:22:13.889Z,99.99
2023-03-24T12:23:13.807Z,99.99
2023-03-24T12:24:13.726Z,99.99
2023-03-24T12:25:13.893Z,99.99
2023-03-24T12:26:13.567Z,99.99
2023-03-24T12:27:13.487Z,99.99
2023-03-24T12:28:13.407Z,99.99
2023-03-24T12:29:13.328Z,99.99
2023-03-24T12:30:13.247Z,99.99
2023-03-24T12:31:13.208Z,99.99
2023-03-24T12:32:13.131Z,99.99
2023-03-24T12:33:13.012Z,99.99
2023-03-24T12:34:12.932Z,99.99
2023-03-24T12:35:12.895Z,99.99
2023-03-24T12:36:12.796Z,99.99
2023-03-24T12:37:12.693Z,99.99
2023-03-24T12:38:12.617Z,99.99
2023-03-24T12:39:12.556Z,99.99
2023-03-24T12:40:12.506Z,99.99
2023-03-24T12:41:12.392Z,99.99
2023-03-24T12:42:12.305Z,99.99
2023-03-24T12:43:12.231Z,99.99
2023-03-24T12:44:12.150Z,99.99
2023-03-24T12:45:12.098Z,99.99
2023-03-24T12:46:12.007Z,99.99
2023-03-24T12:47:11.912Z,99.99
2023-03-24T12:50:47.513Z,99.99
2023-03-24T12:51:47.458Z,99.99
2023-03-24T12:54:15.001Z,99.99
2023-03-24T12:55:18.148Z,99.99
2023-03-24T12:56:14.857Z,99.99
2023-03-24T12:57:15.071Z,99.99
2023-03-24T12:58:17.333Z,99.99
2023-03-24T12:59:14.640Z,99.99
2023-03-24T13:00:15.506Z,99.99
2023-03-24T13:01:14.540Z,99.99
2023-03-24T13:02:14.460Z,99.99
2023-03-24T13:03:14.414Z,99.99
2023-03-24T13:04:14.264Z,99.99
2023-03-24T13:05:15.628Z,99.99
2023-03-24T13:06:17.638Z,99.99
2023-03-24T13:07:14.044Z,99.99
2023-03-24T13:08:13.976Z,99.99
2023-03-24T13:09:13.904Z,99.99
2023-03-24T13:10:14.052Z,99.99
2023-03-24T13:11:26.615Z,99.99
2023-03-24T13:12:13.698Z,99.99
2023-03-24T13:13:13.620Z,99.83
2023-03-24T13:14:13.553Z,99.99
2023-03-24T13:15:13.839Z,99.99
2023-03-24T13:16:13.449Z,98.58
2023-03-24T13:17:13.343Z,99.99
2023-03-24T13:18:13.322Z,99.40
2023-03-24T13:19:13.201Z,97.42
2023-03-24T13:20:13.233Z,99.48
2023-03-24T13:21:13.067Z,99.99
2023-03-24T13:22:13.023Z,99.99
2023-03-24T13:23:12.923Z,99.99
2023-03-24T13:24:14.486Z,99.99
2023-03-24T13:25:13.036Z,99.99
2023-03-24T13:26:12.714Z,99.99
2023-03-24T13:27:12.641Z,99.99
2023-03-24T13:28:12.577Z,99.99
2023-03-24T13:29:12.507Z,99.99
2023-03-24T13:30:12.427Z,99.99
2023-03-24T13:31:12.362Z,99.99
2023-03-24T13:32:12.344Z,99.99
2023-03-24T13:33:12.276Z,99.99
2023-03-24T13:34:12.144Z,99.99
2023-03-24T13:35:12.478Z,99.99
2023-03-24T13:36:12.010Z,99.99
2023-03-24T13:37:11.928Z,99.99
2023-03-24T13:38:11.876Z,99.99
2023-03-24T13:39:11.783Z,99.99
2023-03-24T13:40:11.716Z,99.99
2023-03-24T13:41:11.658Z,99.99
2023-03-24T13:42:11.569Z,99.99
2023-03-24T13:43:11.499Z,99.99
2023-03-24T13:44:11.426Z,98.53
2023-03-24T13:45:11.352Z,97.42
2023-03-24T13:46:11.352Z,98.48
2023-03-24T13:47:11.250Z,98.67
2023-03-24T13:48:11.219Z,98.24
2023-03-24T13:49:11.111Z,99.87
2023-03-24T13:50:11.004Z,99.99
2023-03-24T13:51:10.926Z,99.44
2023-03-24T13:52:10.894Z,99.87
2023-03-24T13:53:10.782Z,96.94
2023-03-24T13:54:10.733Z,95.65
2023-03-24T13:55:10.643Z,91.22
2023-03-24T13:56:10.575Z,92.04
2023-03-24T13:57:10.530Z,91.27
2023-03-24T13:58:10.463Z,91.03
2023-03-24T13:59:10.385Z,90.03
2023-03-24T14:00:10.293Z,91.99
2023-03-24T14:01:10.314Z,92.71
2023-03-24T14:02:10.176Z,92.43
2023-03-24T14:03:11.372Z,89.54
2023-03-24T14:04:10.072Z,87.38
2023-03-24T14:05:09.959Z,89.69
2023-03-24T14:06:09.888Z,90.45
2023-03-24T14:07:09.811Z,88.59
2023-03-24T14:08:09.749Z,90.07
2023-03-24T14:09:09.677Z,89.59
2023-03-24T14:10:09.941Z,89.83
2023-03-24T14:11:09.537Z,90.26
2023-03-24T14:12:09.484Z,90.26
2023-03-24T14:13:09.550Z,87.22
2023-03-24T14:15:47.041Z,87.42
2023-03-24T14:16:46.798Z,88.53
2023-03-24T14:17:46.879Z,86.69
2023-03-24T14:18:52.978Z,85.21
2023-03-24T14:19:46.597Z,85.64
2023-03-24T14:23:14.915Z,81.50
2023-03-24T14:24:12.127Z,82.94
2023-03-24T14:25:12.382Z,81.12
2023-03-24T14:26:11.989Z,81.98
2023-03-24T14:27:11.925Z,84.67
2023-03-24T14:28:11.855Z,83.52
2023-03-24T14:29:11.840Z,83.72
2023-03-24T14:30:11.760Z,81.84
2023-03-24T14:31:11.959Z,82.52
2023-03-24T14:32:19.822Z,82.90
2023-03-24T14:33:11.534Z,81.46
2023-03-24T14:34:11.452Z,83.09
2023-03-24T14:35:11.391Z,83.04
2023-03-24T14:36:11.325Z,81.45
2023-03-24T14:37:11.253Z,82.94
2023-03-24T14:38:11.186Z,82.42
2023-03-24T14:39:11.121Z,83.00
2023-03-24T14:40:11.085Z,83.04
2023-03-24T14:41:11.005Z,82.79
2023-03-24T14:42:10.918Z,79.61
2023-03-24T14:43:10.866Z,80.83
2023-03-24T14:44:13.436Z,80.88
2023-03-24T14:45:14.029Z,80.98
2023-03-24T14:46:10.706Z,80.69
2023-03-24T14:47:11.119Z,82.46
2023-03-24T14:48:10.557Z,80.15
2023-03-24T14:49:10.449Z,81.46
2023-03-24T14:50:13.020Z,82.81
2023-03-24T14:51:10.314Z,83.39
2023-03-24T14:52:10.598Z,84.54
2023-03-24T14:53:10.183Z,82.29
2023-03-24T14:54:10.314Z,82.30
2023-03-24T14:55:10.107Z,84.22
2023-03-24T14:56:09.979Z,84.80
2023-03-24T14:57:09.953Z,85.32
2023-03-24T14:58:10.084Z,84.50
2023-03-24T14:59:09.777Z,82.19
2023-03-24T15:00:09.726Z,80.84
2023-03-24T15:01:09.873Z,82.76
2023-03-24T15:02:09.618Z,82.09
2023-03-24T15:03:09.554Z,81.37
2023-03-24T15:04:09.567Z,81.57
2023-03-24T15:05:09.359Z,81.34
2023-03-24T15:06:09.288Z,82.07
2023-03-24T15:07:12.193Z,83.22
2023-03-24T15:08:09.305Z,84.03
2023-03-24T15:09:09.087Z,83.41
2023-03-24T15:10:09.032Z,84.27
2023-03-24T15:11:08.946Z,83.65
2023-03-24T15:14:34.627Z,82.52
2023-03-24T15:17:34.385Z,83.76
2023-03-24T15:18:34.495Z,83.48
2023-03-24T15:19:34.175Z,82.42
2023-03-24T15:20:35.730Z,82.42
2023-03-24T15:21:34.069Z,81.46
2023-03-24T15:22:33.957Z,82.09
2023-03-24T15:23:33.883Z,82.96
2023-03-24T15:24:33.837Z,82.67
2023-03-24T15:25:33.734Z,82.57
2023-03-24T15:26:33.737Z,82.76
2023-03-24T15:27:33.591Z,82.76
2023-03-24T15:28:33.517Z,83.92
2023-03-24T15:29:33.442Z,83.63
2023-03-24T15:30:33.469Z,85.06
2023-03-24T15:31:33.438Z,85.45
2023-03-24T15:32:33.252Z,85.45
2023-03-24T15:33:33.141Z,87.08
2023-03-24T15:34:33.072Z,86.31
2023-03-24T15:52:00.745Z,79.90
2023-03-24T15:53:00.545Z,78.80
2023-03-24T15:54:00.475Z,79.67
2023-03-24T15:55:00.394Z,81.59
2023-03-24T15:56:00.573Z,81.30
2023-03-24T15:57:00.354Z,81.16
2023-03-24T15:58:00.225Z,80.45
2023-03-24T15:59:00.108Z,82.08
2023-03-24T16:00:00.030Z,82.46
2023-03-24T16:01:00.017Z,81.89
2023-03-24T16:01:59.888Z,81.85
2023-03-24T16:03:00.128Z,80.99
2023-03-24T16:05:09.830Z,82.04
2023-03-24T16:06:00.241Z,81.66
2023-03-24T16:06:59.695Z,81.04
2023-03-24T16:07:59.718Z,82.48
2023-03-24T16:08:59.604Z,85.25
2023-03-24T16:10:59.242Z,85.93
2023-03-24T16:12:00.123Z,85.31
2023-03-24T16:12:59.096Z,84.01
2023-03-24T16:13:58.992Z,84.01
2023-03-24T16:14:58.956Z,84.55
2023-03-24T16:15:58.835Z,83.68
2023-03-24T16:16:58.824Z,84.06
2023-03-24T16:17:58.731Z,85.31
2023-03-24T16:18:58.609Z,85.12
2023-03-24T16:19:58.536Z,85.69
2023-03-24T16:20:58.455Z,85.88
2023-03-24T16:21:58.530Z,85.41
2023-03-24T16:22:58.305Z,85.02
2023-03-24T16:23:58.298Z,85.69
2023-03-24T16:24:58.217Z,85.50
2023-03-24T16:28:10.707Z,85.50
2023-03-24T16:29:10.430Z,86.22
2023-03-24T16:30:10.357Z,87.99
2023-03-24T16:31:10.400Z,88.62
2023-03-24T16:32:10.204Z,88.52
2023-03-24T16:33:10.158Z,88.04
2023-03-24T16:34:10.048Z,87.85
2023-03-24T16:35:10.032Z,86.13
2023-03-24T16:36:09.902Z,87.76
2023-03-24T16:37:09.813Z,87.95
2023-03-24T16:38:09.740Z,86.70
2023-03-24T16:39:09.687Z,87.47
2023-03-24T16:40:09.587Z,87.85
2023-03-24T16:41:09.509Z,89.00
2023-03-24T16:42:09.432Z,89.86
2023-03-24T16:43:09.354Z,89.95
2023-03-24T16:44:09.278Z,89.76
2023-03-24T16:45:09.238Z,88.81
2023-03-24T16:46:09.203Z,88.86
2023-03-24T16:47:09.085Z,89.15
2023-03-24T16:48:09.059Z,88.43
2023-03-24T16:49:08.897Z,87.43
2023-03-24T16:50:08.816Z,87.47
2023-03-24T16:51:51.225Z,87.81
2023-03-24T16:52:51.146Z,87.90
2023-03-24T16:53:51.074Z,87.43
2023-03-24T16:54:51.031Z,88.57
2023-03-24T16:55:50.915Z,87.52
2023-03-24T16:56:50.885Z,87.52
2023-03-24T16:57:50.760Z,88.09
2023-03-24T16:58:50.683Z,88.48
2023-03-24T16:59:50.606Z,88.76
2023-03-24T17:00:50.843Z,88.86
2023-03-24T17:01:50.465Z,88.86
2023-03-24T17:02:50.401Z,89.05
2023-03-24T17:03:50.403Z,88.67
2023-03-24T17:04:50.255Z,88.48
2023-03-24T17:05:50.584Z,88.67
2023-03-24T17:06:51.216Z,89.05
2023-03-24T17:07:50.194Z,89.53
2023-03-24T17:08:50.248Z,89.53
2023-03-24T17:09:49.868Z,90.58
2023-03-24T17:10:51.776Z,88.81
2023-03-24T17:11:49.724Z,89.43
2023-03-24T17:12:49.607Z,89.48
2023-03-24T17:13:49.520Z,89.67
2023-03-24T17:14:49.444Z,90.25
2023-03-24T17:15:49.441Z,90.34
2023-03-24T17:16:49.348Z,90.44
2023-03-24T17:17:49.250Z,90.63
2023-03-24T17:18:49.128Z,91.49
2023-03-24T17:19:49.075Z,93.31
2023-03-24T17:20:49.088Z,92.54
2023-03-24T17:21:48.931Z,93.16
2023-03-24T17:22:48.817Z,94.31
2023-03-24T17:23:48.747Z,94.31
2023-03-24T17:24:48.675Z,95.07
2023-03-24T17:25:48.584Z,95.65
2023-03-24T17:26:48.730Z,95.27
2023-03-24T17:27:48.431Z,95.07
2023-03-24T17:28:48.358Z,95.94
2023-03-24T17:29:48.408Z,96.42
2023-03-24T17:30:48.450Z,97.18
2023-03-24T17:31:48.168Z,97.66
2023-03-24T17:32:48.072Z,98.52
2023-03-24T17:33:48.201Z,98.52
2023-03-24T17:34:47.923Z,98.90
2023-03-24T17:35:47.869Z,98.99
2023-03-24T17:36:47.769Z,99.66
2023-03-24T17:37:47.646Z,99.09
2023-03-24T17:38:47.579Z,99.95
2023-03-24T17:39:47.502Z,99.81
2023-03-24T17:40:47.521Z,99.76
2023-03-24T17:41:47.377Z,99.81
2023-03-24T17:42:47.299Z,99.33
2023-03-24T17:43:47.417Z,99.81
2023-03-24T17:44:47.132Z,99.99
2023-03-24T17:45:47.255Z,99.99
2023-03-24T17:46:46.984Z,99.99
2023-03-24T17:47:47.286Z,99.99
2023-03-24T17:48:49.261Z,99.99
2023-03-24T17:49:46.746Z,99.99
2023-03-24T17:50:46.992Z,99.99
2023-03-24T17:51:46.589Z,99.99
2023-03-24T17:52:46.734Z,99.99
2023-03-24T17:53:46.394Z,99.99
2023-03-24T17:55:46.269Z,99.99
2023-03-24T17:56:46.463Z,99.99
2023-03-24T17:57:46.524Z,99.99
2023-03-24T17:58:46.067Z,99.99
2023-03-24T17:59:46.303Z,99.99
2023-03-24T18:00:46.117Z,99.99
2023-03-24T18:01:46.104Z,99.99
2023-03-24T18:02:46.022Z,99.99
2023-03-24T18:03:45.682Z,99.99
2023-03-24T18:04:45.530Z,99.99
2023-03-24T18:05:45.450Z,99.99
2023-03-24T18:06:45.372Z,99.99
2023-03-24T18:07:45.286Z,99.99
2023-03-24T18:08:45.213Z,99.99
2023-03-24T18:09:45.135Z,99.76
2023-03-24T18:10:45.053Z,98.90
2023-03-24T18:11:46.707Z,97.85
2023-03-24T18:12:44.898Z,98.80
2023-03-24T18:13:44.816Z,97.37
2023-03-24T18:14:44.778Z,97.75
2023-03-24T18:15:44.658Z,97.28
2023-03-24T18:16:44.611Z,97.08
2023-03-24T18:17:44.503Z,97.37
2023-03-24T18:18:45.474Z,95.56
2023-03-24T18:19:44.383Z,95.94
2023-03-24T18:20:44.263Z,95.75
2023-03-24T18:21:44.191Z,94.98
2023-03-24T18:22:44.119Z,93.74
2023-03-24T18:23:44.110Z,92.59
2023-03-24T18:24:43.982Z,91.64
2023-03-24T18:27:43.710Z,88.58
2023-03-24T18:28:43.635Z,89.06
2023-03-24T18:29:43.554Z,89.82
2023-03-24T18:30:43.637Z,88.87
2023-03-24T18:31:43.641Z,88.87
2023-03-24T18:32:43.648Z,88.77
2023-03-24T18:33:43.238Z,91.74
2023-03-24T18:34:44.562Z,91.69
2023-03-24T18:35:43.085Z,90.73
2023-03-24T18:36:43.038Z,89.78
2023-03-24T18:37:43.666Z,89.20
2023-03-24T18:38:42.878Z,89.01
2023-03-24T18:39:43.003Z,89.11
2023-03-24T18:40:42.721Z,89.87
2023-03-24T18:41:42.613Z,89.78
2023-03-24T18:42:42.561Z,89.68
2023-03-24T18:43:42.682Z,89.87
2023-03-24T18:44:42.604Z,89.59
2023-03-24T18:46:42.979Z,89.11
2023-03-24T18:47:43.003Z,88.82
2023-03-24T18:51:41.817Z,88.92
2023-03-24T18:52:41.735Z,88.73
2023-03-24T18:53:41.761Z,89.97
2023-03-24T18:54:41.609Z,90.92
2023-03-24T18:55:41.531Z,91.55
2023-03-24T19:05:23.289Z,90.88
2023-03-24T19:06:23.185Z,90.35
2023-03-24T19:07:23.115Z,90.06
2023-03-24T19:33:09.734Z,94.93
2023-03-24T19:34:09.561Z,94.79
2023-03-24T19:35:09.488Z,94.46
2023-03-24T19:36:09.561Z,95.03
2023-03-24T19:37:09.321Z,94.98
2023-03-24T19:38:09.242Z,97.32
2023-03-24T19:39:09.164Z,97.32
2023-03-24T19:40:09.086Z,97.03
2023-03-24T19:41:09.004Z,97.22
2023-03-24T19:42:08.925Z,99.99
2023-03-24T19:43:08.844Z,99.99
2023-03-24T19:44:08.766Z,99.99
2023-03-24T19:45:08.986Z,99.99
2023-03-24T19:46:12.447Z,99.99
2023-03-24T19:47:08.570Z,99.99
2023-03-24T19:48:08.482Z,99.99
2023-03-24T19:49:08.405Z,99.99
2023-03-24T19:51:08.205Z,99.99
2023-03-24T19:52:08.127Z,99.99
2023-03-24T19:53:08.177Z,99.99
2023-03-24T19:54:07.981Z,99.99
2023-03-24T19:55:07.880Z,99.99
2023-03-24T19:56:07.806Z,99.99
2023-03-24T19:57:07.866Z,99.99
2023-03-24T19:58:07.649Z,99.99
2023-03-24T20:22:47.923Z,99.99
2023-03-24T20:23:47.818Z,99.99